createdAt,value
2022-11-04T00:00:22.004Z,94651.00
2022-11-04T00:02:52.925Z,94660.34
2022-11-04T00:05:20.379Z,94642.72
2022-11-04T00:08:05.793Z,94659.06
2022-11-04T00:10:52.202Z,94658.56
2022-11-04T00:13:19.670Z,94663.78
2022-11-04T00:16:04.579Z,94655.44
2022-11-04T00:18:32.055Z,94669.22
2022-11-04T00:21:17.172Z,94666.66
2022-11-04T00:24:07.673Z,94662.19
2022-11-04T00:26:54.162Z,94691.28
2022-11-04T00:29:21.590Z,94683.28
2022-11-04T00:32:06.770Z,94687.66
2022-11-04T00:34:34.183Z,94688.47
2022-11-04T00:37:02.959Z,94689.22
2022-11-04T00:39:30.657Z,94683.53
2022-11-04T00:41:59.538Z,94697.81
2022-11-04T00:44:26.985Z,94693.38
2022-11-04T00:46:54.412Z,94717.56
2022-11-04T00:49:21.842Z,94717.56
2022-11-04T00:51:49.269Z,94705.94
2022-11-04T00:54:17.649Z,94727.22
2022-11-04T00:56:45.261Z,94711.13
2022-11-04T00:59:14.714Z,94720.72
2022-11-04T01:01:42.933Z,94723.81
2022-11-04T01:04:10.514Z,94726.16
2022-11-04T01:06:37.978Z,94726.69
2022-11-04T01:09:08.087Z,94717.88
2022-11-04T01:11:35.969Z,94710.31
2022-11-04T01:14:03.438Z,94722.53
2022-11-04T01:16:32.648Z,94743.28
2022-11-04T01:19:00.194Z,94740.69
2022-11-04T01:21:27.800Z,94728.25
2022-11-04T01:23:55.702Z,94739.91
2022-11-04T01:26:25.065Z,94742.25
2022-11-04T01:28:54.609Z,94748.47
2022-11-04T01:31:23.405Z,94758.06
2022-11-04T01:33:53.863Z,94754.69
2022-11-04T01:36:22.875Z,94741.44
2022-11-04T01:38:50.640Z,94756.50
2022-11-04T01:41:20.202Z,94735.22
2022-11-04T01:43:51.490Z,94773.63
2022-11-04T01:46:27.829Z,94773.91
2022-11-04T01:49:02.578Z,94754.94
2022-11-04T01:51:33.579Z,94767.41
2022-11-04T01:54:02.553Z,94738.09
2022-11-04T01:56:30.457Z,94771.56
2022-11-04T01:59:04.041Z,94766.13
2022-11-04T02:01:31.720Z,94757.53
2022-11-04T02:04:21.808Z,94758.84
2022-11-04T02:06:50.575Z,94758.31
2022-11-04T02:09:19.341Z,94751.81
2022-11-04T02:12:04.430Z,94759.59
2022-11-04T02:14:32.997Z,94764.75
2022-11-04T02:17:07.750Z,94750.22
2022-11-04T02:20:00.325Z,94738.84
2022-11-04T02:22:49.828Z,94750.50
2022-11-04T02:25:40.444Z,94745.03
2022-11-04T02:28:41.178Z,94744.50
2022-11-04T02:31:16.451Z,94725.34
2022-11-04T02:33:50.340Z,94725.59
2022-11-04T02:36:28.835Z,94721.94
2022-11-04T02:39:01.176Z,94719.34
2022-11-04T02:41:39.115Z,94726.03
2022-11-04T02:44:16.835Z,94731.53
2022-11-04T02:46:51.354Z,94720.84
2022-11-04T02:49:23.076Z,94729.69
2022-11-04T02:51:55.923Z,94729.94
2022-11-04T02:54:29.321Z,94719.56
2022-11-04T02:56:59.482Z,94702.16
2022-11-04T02:59:32.834Z,94725.56
2022-11-04T03:02:06.355Z,94714.19
2022-11-04T03:04:38.815Z,94713.91
2022-11-04T03:09:51.010Z,94710.31
2022-11-04T03:12:26.138Z,94714.44
2022-11-04T03:14:56.954Z,94706.44
2022-11-04T03:17:34.357Z,94705.13
2022-11-04T03:20:04.182Z,94700.97
2022-11-04T03:22:35.727Z,94697.09
2022-11-04T03:25:03.850Z,94708.25
2022-11-04T03:27:36.031Z,94690.09
2022-11-04T03:30:08.636Z,94681.53
2022-11-04T03:32:44.633Z,94685.69
2022-11-04T03:35:15.217Z,94686.97
2022-11-04T03:37:42.976Z,94683.34
2022-11-04T03:40:13.180Z,94685.44
2022-11-04T03:42:45.459Z,94691.38
2022-11-04T03:45:14.919Z,94682.31
2022-11-04T03:47:44.187Z,94695.78
2022-11-04T03:50:19.007Z,94686.44
2022-11-04T03:52:46.835Z,94703.78
2022-11-04T03:55:14.455Z,94678.34
2022-11-04T03:57:53.039Z,94681.44
2022-11-04T04:00:22.360Z,94702.47
2022-11-04T04:03:13.065Z,94703.03
2022-11-04T04:05:48.952Z,94711.50
2022-11-04T04:08:26.175Z,94716.44
2022-11-04T04:11:03.066Z,94706.06
2022-11-04T04:13:38.458Z,94702.44
2022-11-04T04:16:11.690Z,94703.50
2022-11-04T04:18:44.882Z,94695.19
2022-11-04T04:21:15.979Z,94698.78
2022-11-04T04:24:03.256Z,94710.16
2022-11-04T04:26:51.883Z,94709.88
2022-11-04T04:29:20.053Z,94706.50
2022-11-04T04:31:52.599Z,94703.09
2022-11-04T04:34:26.388Z,94704.44
2022-11-04T04:37:01.009Z,94704.97
2022-11-04T04:39:53.480Z,94707.84
2022-11-04T04:42:39.107Z,94698.25
2022-11-04T04:45:08.646Z,94698.78
2022-11-04T04:47:41.243Z,94697.75
2022-11-04T04:50:11.705Z,94700.88
2022-11-04T04:52:41.733Z,94700.38
2022-11-04T04:55:10.683Z,94695.69
2022-11-04T04:57:38.404Z,94700.88
2022-11-04T05:00:08.147Z,94702.97
2022-11-04T05:02:35.765Z,94685.88
2022-11-04T05:05:03.377Z,94699.88
2022-11-04T05:07:32.309Z,94696.28
2022-11-04T05:09:59.809Z,94698.38
2022-11-04T05:12:47.254Z,94691.66
2022-11-04T05:15:14.765Z,94696.81
2022-11-04T05:17:42.274Z,94696.06
2022-11-04T05:20:11.232Z,94690.88
2022-11-04T05:22:40.016Z,94692.69
2022-11-04T05:25:07.930Z,94686.72
2022-11-04T05:27:35.387Z,94683.88
2022-11-04T05:30:02.799Z,94680.75
2022-11-04T05:32:31.099Z,94674.00
2022-11-04T05:34:58.900Z,94691.41
2022-11-04T05:37:26.789Z,94694.00
2022-11-04T05:39:55.612Z,94686.47
2022-11-04T05:42:23.086Z,94682.81
2022-11-04T05:44:50.597Z,94697.88
2022-11-04T05:47:18.077Z,94695.28
2022-11-04T05:49:45.501Z,94693.22
2022-11-04T05:52:12.970Z,94696.31
2022-11-04T05:54:40.416Z,94699.69
2022-11-04T05:57:10.369Z,94694.22
2022-11-04T05:59:37.830Z,94696.81
2022-11-04T06:02:05.381Z,94694.50
2022-11-04T06:04:32.914Z,94702.00
2022-11-04T06:07:00.418Z,94701.25
2022-11-04T06:09:39.599Z,94700.47
2022-11-04T06:12:10.437Z,94704.06
2022-11-04T06:14:38.265Z,94706.44
2022-11-04T06:17:05.895Z,94705.66
2022-11-04T06:19:33.497Z,94718.63
2022-11-04T06:22:01.122Z,94709.28
2022-11-04T06:24:28.553Z,94709.03
2022-11-04T06:26:55.971Z,94711.13
2022-11-04T06:29:24.774Z,94712.69
2022-11-04T06:31:52.276Z,94714.75
2022-11-04T06:34:19.862Z,94705.41
2022-11-04T06:36:47.309Z,94721.22
2022-11-04T06:39:14.730Z,94717.06
2022-11-04T06:41:43.087Z,94734.19
2022-11-04T06:44:10.872Z,94736.78
2022-11-04T06:46:41.851Z,94719.66
2022-11-04T06:49:13.407Z,94731.06
2022-11-04T06:51:40.902Z,94732.88
2022-11-04T06:54:08.415Z,94696.81
2022-11-04T06:56:36.054Z,94722.22
2022-11-04T06:59:04.142Z,94725.84
2022-11-04T07:01:36.423Z,94737.25
2022-11-04T07:04:06.173Z,94724.31
2022-11-04T07:06:33.620Z,94740.63
2022-11-04T07:09:02.692Z,94733.88
2022-11-04T07:11:32.530Z,94745.28
2022-11-04T07:14:00.004Z,94754.34
2022-11-04T07:16:27.509Z,94765.53
2022-11-04T07:18:55.146Z,94770.97
2022-11-04T07:21:24.445Z,94770.41
2022-11-04T07:23:51.960Z,94777.09
2022-11-04T07:26:19.430Z,94788.56
2022-11-04T07:28:46.894Z,94795.56
2022-11-04T07:31:15.609Z,94806.47
2022-11-04T07:33:43.074Z,94770.44
2022-11-04T07:36:13.279Z,94815.31
2022-11-04T07:38:42.070Z,94808.31
2022-11-04T07:41:09.875Z,94822.13
2022-11-04T07:43:37.278Z,94817.19
2022-11-04T07:46:07.350Z,94822.38
2022-11-04T07:48:36.537Z,94813.06
2022-11-04T07:51:04.930Z,94822.66
2022-11-04T07:53:32.372Z,94828.13
2022-11-04T07:56:04.540Z,94826.03
2022-11-04T07:58:32.503Z,94818.53
2022-11-04T08:01:00.508Z,94816.19
2022-11-04T08:03:28.163Z,94808.94
2022-11-04T08:05:57.297Z,94807.13
2022-11-04T08:08:24.826Z,94809.22
2022-11-04T08:10:56.272Z,94812.06
2022-11-04T08:13:27.858Z,94809.97
2022-11-04T08:15:55.392Z,94820.88
2022-11-04T08:18:22.820Z,94818.28
2022-11-04T08:20:51.062Z,94813.63
2022-11-04T08:23:19.162Z,94813.63
2022-11-04T08:25:47.410Z,94819.84
2022-11-04T08:28:17.483Z,94815.94
2022-11-04T08:30:55.574Z,94823.72
2022-11-04T08:33:24.263Z,94831.00
2022-11-04T08:35:51.831Z,94820.34
2022-11-04T08:38:19.301Z,94829.69
2022-11-04T08:40:47.017Z,94839.06
2022-11-04T08:43:14.554Z,94846.31
2022-11-04T08:45:43.174Z,94844.75
2022-11-04T08:48:12.952Z,94833.06
2022-11-04T08:50:40.623Z,94855.91
2022-11-04T08:53:08.420Z,94853.59
2022-11-04T08:55:36.879Z,94863.19
2022-11-04T08:58:04.340Z,94863.97
2022-11-04T09:00:32.946Z,94859.53
2022-11-04T09:03:00.605Z,94846.31
2022-11-04T09:05:29.732Z,94851.19
2022-11-04T09:07:57.531Z,94846.72
2022-11-04T09:10:25.099Z,94847.75
2022-11-04T09:12:52.516Z,94859.16
2022-11-04T09:15:19.954Z,94854.22
2022-11-04T09:17:47.365Z,94853.72
2022-11-04T09:20:14.790Z,94857.88
2022-11-04T09:22:45.920Z,94837.38
2022-11-04T09:25:13.529Z,94852.41
2022-11-04T09:27:40.931Z,94845.63
2022-11-04T09:30:09.498Z,94824.28
2022-11-04T09:32:36.916Z,94839.66
2022-11-04T09:35:05.062Z,94848.72
2022-11-04T09:37:32.590Z,94847.16
2022-11-04T09:40:01.401Z,94857.00
2022-11-04T09:42:47.903Z,94849.47
2022-11-04T09:45:23.936Z,94860.94
2022-11-04T09:47:56.275Z,94856.22
2022-11-04T09:50:28.110Z,94849.63
2022-11-04T09:52:59.660Z,94847.25
2022-11-04T09:55:41.633Z,94848.25
2022-11-04T09:58:13.210Z,94838.41
2022-11-04T10:00:45.044Z,94848.03
2022-11-04T10:03:24.611Z,94846.91
2022-11-04T10:06:12.030Z,94857.91
2022-11-04T10:09:02.077Z,94856.34
2022-11-04T10:11:41.519Z,94861.59
2022-11-04T10:14:31.387Z,94863.16
2022-11-04T10:17:14.391Z,94864.72
2022-11-04T10:19:52.830Z,94862.63
2022-11-04T10:22:29.508Z,94868.72
2022-11-04T10:25:08.835Z,94871.56
2022-11-04T10:27:39.653Z,94870.28
2022-11-04T10:30:15.594Z,94869.72
2022-11-04T10:32:53.121Z,94874.13
2022-11-04T10:35:29.019Z,94887.63
2022-11-04T10:38:03.357Z,94875.13
2022-11-04T10:40:37.261Z,94872.78
2022-11-04T10:43:11.599Z,94884.94
2022-11-04T10:45:44.786Z,94877.09
2022-11-04T10:48:20.570Z,94884.84
2022-11-04T10:50:54.350Z,94889.22
2022-11-04T10:53:25.627Z,94895.44
2022-11-04T10:56:00.050Z,94893.06
2022-11-04T10:58:31.815Z,94897.25
2022-11-04T11:01:00.147Z,94903.47
2022-11-04T11:03:33.522Z,94896.13
2022-11-04T11:06:26.661Z,94899.22
2022-11-04T11:08:57.673Z,94908.34
2022-11-04T11:11:37.557Z,94905.50
2022-11-04T11:14:06.383Z,94898.91
2022-11-04T11:16:33.843Z,94914.03
2022-11-04T11:19:17.410Z,94909.63
2022-11-04T11:21:48.875Z,94915.25
2022-11-04T11:24:21.639Z,94910.84
2022-11-04T11:26:51.189Z,94927.25
2022-11-04T11:29:25.063Z,94919.38
2022-11-04T11:31:54.322Z,94928.78
2022-11-04T11:34:27.147Z,94936.59
2022-11-04T11:36:56.201Z,94926.34
2022-11-04T11:39:28.042Z,94929.47
2022-11-04T11:41:59.340Z,94915.63
2022-11-04T11:44:32.649Z,94924.88
2022-11-04T11:47:02.891Z,94921.16
2022-11-04T11:49:33.794Z,94920.06
2022-11-04T11:52:36.768Z,94934.94
2022-11-04T11:55:08.508Z,94941.97
2022-11-04T11:57:46.588Z,94934.41
2022-11-04T12:00:45.635Z,94935.78
2022-11-04T12:03:21.841Z,94940.28
2022-11-04T12:11:57.625Z,94934.72
2022-11-04T12:14:36.535Z,94942.53
2022-11-04T12:17:15.933Z,94937.34
2022-11-04T12:19:52.956Z,94934.13
2022-11-04T12:22:27.786Z,94948.72
2022-11-04T12:25:06.018Z,94938.09
2022-11-04T12:27:40.830Z,94953.50
2022-11-04T12:30:11.671Z,94954.28
2022-11-04T12:32:53.271Z,94955.31
2022-11-04T12:35:32.775Z,94951.97
2022-11-04T12:38:18.318Z,94957.88
2022-11-04T12:41:18.744Z,94961.31
2022-11-04T12:43:52.236Z,94963.06
2022-11-04T12:46:27.363Z,94966.44
2022-11-04T12:49:29.597Z,94969.81
2022-11-04T12:52:08.343Z,94975.69
2022-11-04T12:54:58.683Z,94970.38
2022-11-04T12:57:34.210Z,94964.34
2022-11-04T13:00:10.513Z,94968.47
2022-11-04T13:02:44.655Z,94953.56
2022-11-04T13:05:29.198Z,94973.28
2022-11-04T13:08:03.986Z,94966.34
2022-11-04T13:10:39.453Z,94967.31
2022-11-04T13:13:09.161Z,94973.41
2022-11-04T13:15:46.804Z,94969.00
2022-11-04T13:18:19.913Z,94975.66
2022-11-04T13:20:59.315Z,94970.72
2022-11-04T13:23:35.901Z,94962.59
2022-11-04T13:26:07.001Z,94979.44
2022-11-04T13:28:37.125Z,94982.84
2022-11-04T13:31:09.447Z,94990.13
2022-11-04T13:33:48.637Z,94987.22
2022-11-04T13:36:29.219Z,94992.91
2022-11-04T13:39:00.966Z,94990.03
2022-11-04T13:41:47.880Z,94995.19
2022-11-04T13:44:22.949Z,94994.94
2022-11-04T13:46:53.483Z,95003.38
2022-11-04T13:49:30.460Z,95005.53
2022-11-04T13:52:07.903Z,95015.63
2022-11-04T13:54:41.677Z,95013.75
2022-11-04T13:57:13.113Z,95020.91
2022-11-04T13:59:41.568Z,95040.16
2022-11-04T14:02:40.416Z,95039.91
2022-11-04T14:05:52.884Z,95043.78
2022-11-04T14:08:21.720Z,95050.31
2022-11-04T14:11:16.068Z,95055.53
2022-11-04T14:14:05.222Z,95041.47
2022-11-04T14:16:41.839Z,95063.03
2022-11-04T14:19:56.791Z,95060.19
2022-11-04T14:22:50.266Z,95077.34
2022-11-04T14:25:29.725Z,95073.16
2022-11-04T14:27:59.785Z,95076.56
2022-11-04T14:30:33.847Z,95078.09
2022-11-04T14:33:03.774Z,95073.16
2022-11-04T14:35:32.394Z,95079.94
2022-11-04T14:38:08.227Z,95083.31
2022-11-04T14:40:53.347Z,95084.34
2022-11-04T14:43:33.557Z,95084.09
2022-11-04T14:46:02.499Z,95087.22
2022-11-04T14:48:31.145Z,95094.75
2022-11-04T14:50:59.283Z,95103.06
2022-11-04T14:53:31.697Z,95100.47
2022-11-04T14:56:23.028Z,95097.88
2022-11-04T14:58:59.260Z,95108.28
2022-11-04T15:01:34.315Z,95112.19
2022-11-04T15:04:12.754Z,95113.25
2022-11-04T15:06:54.376Z,95113.53
2022-11-04T15:09:25.038Z,95120.56
2022-11-04T15:12:20.552Z,95124.13
2022-11-04T15:14:48.239Z,95127.44
2022-11-04T15:17:20.478Z,95125.66
2022-11-04T15:19:51.386Z,95125.47
2022-11-04T15:22:19.951Z,95126.25
2022-11-04T15:24:47.682Z,95135.63
2022-11-04T15:27:18.546Z,95149.44
2022-11-04T15:29:54.570Z,95147.84
2022-11-04T15:32:26.855Z,95155.41
2022-11-04T15:34:55.150Z,95175.88
2022-11-04T15:37:24.513Z,95139.75
2022-11-04T15:39:54.038Z,95178.50
2022-11-04T15:42:40.171Z,95174.31
2022-11-04T15:45:35.708Z,95181.63
2022-11-04T15:48:22.456Z,95183.44
2022-11-04T15:50:54.624Z,95183.94
2022-11-04T15:53:22.171Z,95183.91
2022-11-04T15:55:49.849Z,95193.78
2022-11-04T15:58:20.354Z,95203.41
2022-11-04T16:00:53.730Z,95194.78
2022-11-04T16:03:24.268Z,95203.66
2022-11-04T16:06:02.382Z,95208.59
2022-11-04T16:08:30.921Z,95197.19
2022-11-04T16:11:16.458Z,95215.91
2022-11-04T16:13:46.261Z,95218.75
2022-11-04T16:16:22.651Z,95216.38
2022-11-04T16:18:53.597Z,95215.25
2022-11-04T16:21:26.271Z,95220.44
2022-11-04T16:24:00.111Z,95236.56
2022-11-04T16:26:30.117Z,95224.59
2022-11-04T16:29:01.726Z,95235.22
2022-11-04T16:31:34.655Z,95238.31
2022-11-04T16:34:02.283Z,95241.84
2022-11-04T16:36:35.156Z,95244.19
2022-11-04T16:39:08.606Z,95235.56
2022-11-04T16:41:38.494Z,95247.53
2022-11-04T16:44:16.690Z,95257.88
2022-11-04T16:46:45.307Z,95241.50
2022-11-04T16:49:15.670Z,95268.28
2022-11-04T16:51:43.539Z,95272.47
2022-11-04T16:54:11.264Z,95268.84
2022-11-04T16:56:39.624Z,95265.97
2022-11-04T16:59:10.494Z,95271.38
2022-11-04T17:01:39.702Z,95270.59
2022-11-04T17:04:07.771Z,95261.81
2022-11-04T17:06:35.904Z,95265.91
2022-11-04T17:09:03.414Z,95270.09
2022-11-04T17:11:31.049Z,95276.56
2022-11-04T17:13:58.502Z,95284.66
2022-11-04T17:16:27.250Z,95290.88
2022-11-04T17:18:54.685Z,95290.34
2022-11-04T17:21:22.322Z,95294.50
2022-11-04T17:23:49.832Z,95295.28
2022-11-04T17:26:17.272Z,95302.78
2022-11-04T17:28:44.731Z,95296.81
2022-11-04T17:31:19.426Z,95300.13
2022-11-04T17:33:48.746Z,95306.84
2022-11-04T17:36:19.414Z,95325.00
2022-11-04T17:38:47.851Z,95316.63
2022-11-04T17:41:32.861Z,95325.91
2022-11-04T17:44:03.355Z,95323.88
2022-11-04T17:46:34.864Z,95334.03
2022-11-04T17:49:06.708Z,95332.75
2022-11-04T17:51:34.411Z,95339.50
2022-11-04T17:54:02.031Z,95332.75
2022-11-04T17:56:30.627Z,95352.75
2022-11-04T17:58:59.824Z,95327.69
2022-11-04T18:01:28.010Z,95321.19
2022-11-04T18:03:55.626Z,95358.50
2022-11-04T18:06:26.133Z,95354.84
2022-11-04T18:08:54.534Z,95356.59
2022-11-04T18:11:40.211Z,95362.16
2022-11-04T18:14:12.300Z,95365.03
2022-11-04T18:16:43.970Z,95360.06
2022-11-04T18:19:11.843Z,95370.69
2022-11-04T18:21:40.633Z,95368.16
2022-11-04T18:24:08.690Z,95362.66
2022-11-04T18:26:36.334Z,95373.75
2022-11-04T18:29:04.378Z,95364.44
2022-11-04T18:31:33.954Z,95379.03
2022-11-04T18:34:03.008Z,95383.44
2022-11-04T18:36:31.841Z,95371.94
2022-11-04T18:39:01.258Z,95396.41
2022-11-04T18:41:29.229Z,95394.13
2022-11-04T18:43:57.106Z,95401.94
2022-11-04T18:46:24.615Z,95388.97
2022-11-04T18:48:52.642Z,95397.75
2022-11-04T18:51:22.336Z,95389.13
2022-11-04T18:53:50.400Z,95392.75
2022-11-04T18:56:20.827Z,95392.78
2022-11-04T18:58:48.375Z,95401.59
2022-11-04T19:01:18.917Z,95401.66
2022-11-04T19:03:46.852Z,95380.94
2022-11-04T19:06:16.438Z,95407.63
2022-11-04T19:08:46.913Z,95386.13
2022-11-04T19:11:18.177Z,95416.47
2022-11-04T19:13:51.331Z,95400.72
2022-11-04T19:16:19.072Z,95411.47
2022-11-04T19:18:49.104Z,95416.47
2022-11-04T19:21:18.867Z,95416.66
2022-11-04T19:23:46.679Z,95417.16
2022-11-04T19:26:15.865Z,95421.09
2022-11-04T19:28:48.531Z,95426.03
2022-11-04T19:31:20.260Z,95427.38
2022-11-04T19:33:48.855Z,95417.38
2022-11-04T19:36:17.933Z,95433.28
2022-11-04T19:38:45.897Z,95426.00
2022-11-04T19:41:29.508Z,95454.97
2022-11-04T19:43:56.988Z,95451.53
2022-11-04T19:46:26.321Z,95447.34
2022-11-04T19:48:53.957Z,95455.41
2022-11-04T19:51:21.397Z,95466.88
2022-11-04T19:53:48.825Z,95467.34
2022-11-04T19:56:16.940Z,95459.25
2022-11-04T19:58:45.184Z,95467.91
2022-11-04T20:01:14.762Z,95469.94
2022-11-04T20:03:45.050Z,95462.88
2022-11-04T20:06:14.580Z,95472.22
2022-11-04T20:08:44.014Z,95464.16
2022-11-04T20:11:12.994Z,95485.00
2022-11-04T20:13:49.486Z,95454.41
2022-11-04T20:16:19.530Z,95485.97
2022-11-04T20:18:50.608Z,95477.22
2022-11-04T20:21:20.200Z,95491.63
2022-11-04T20:23:47.727Z,95499.91
2022-11-04T20:26:20.662Z,95469.56
2022-11-04T20:28:48.735Z,95514.94
2022-11-04T20:31:18.616Z,95513.84
2022-11-04T20:33:48.525Z,95515.31
2022-11-04T20:36:18.355Z,95513.03
2022-11-04T20:38:47.040Z,95524.50
2022-11-04T20:41:18.683Z,95474.50
2022-11-04T20:43:47.943Z,95533.06
2022-11-04T20:46:17.030Z,95540.28
2022-11-04T20:48:44.565Z,95537.56
2022-11-04T20:51:15.481Z,95543.78
2022-11-04T20:53:43.688Z,95547.72
2022-11-04T20:56:14.068Z,95538.78
2022-11-04T20:58:43.238Z,95559.25
2022-11-04T21:01:14.330Z,95527.06
2022-11-04T21:03:42.869Z,95559.41
2022-11-04T21:06:10.997Z,95556.28
2022-11-04T21:08:40.351Z,95556.75
2022-11-04T21:11:08.709Z,95565.50
2022-11-04T21:13:36.170Z,95561.94
2022-11-04T21:16:03.681Z,95572.16
2022-11-04T21:18:31.595Z,95575.53
2022-11-04T21:20:59.373Z,95592.44
2022-11-04T21:23:26.840Z,95584.47
2022-11-04T21:25:57.992Z,95584.47
2022-11-04T21:28:26.463Z,95594.06
2022-11-04T21:30:55.507Z,95580.31
2022-11-04T21:33:22.926Z,95594.63
2022-11-04T21:35:50.402Z,95541.50
2022-11-04T21:38:19.022Z,95602.72
2022-11-04T21:40:47.573Z,95600.91
2022-11-04T21:43:16.337Z,95605.31
2022-11-04T21:45:45.841Z,95596.97
2022-11-04T21:48:13.554Z,95599.50
2022-11-04T21:50:41.018Z,95614.28
2022-11-04T21:53:08.583Z,95618.13
2022-11-04T21:55:38.741Z,95622.84
2022-11-04T21:58:06.195Z,95617.91
2022-11-04T22:00:35.005Z,95610.13
2022-11-04T22:03:02.434Z,95621.88
2022-11-04T22:05:29.974Z,95620.56
2022-11-04T22:08:14.912Z,95618.66
2022-11-04T22:10:42.317Z,95625.34
2022-11-04T22:13:09.920Z,95635.44
2022-11-04T22:15:56.691Z,95641.31
2022-11-04T22:18:24.134Z,95628.13
2022-11-04T22:20:51.766Z,95639.25
2022-11-04T22:23:19.351Z,95639.25
2022-11-04T22:25:50.107Z,95641.84
2022-11-04T22:28:19.137Z,95642.66
2022-11-04T22:30:47.912Z,95639.50
2022-11-04T22:33:15.353Z,95652.47
2022-11-04T22:35:45.733Z,95643.34
2022-11-04T22:38:13.247Z,95654.19
2022-11-04T22:40:41.268Z,95657.97
2022-11-04T22:43:08.908Z,95660.09
2022-11-04T22:45:39.739Z,95660.47
2022-11-04T22:48:08.602Z,95667.06
2022-11-04T22:50:37.849Z,95660.66
2022-11-04T22:53:05.273Z,95673.16
2022-11-04T22:55:32.699Z,95677.88
2022-11-04T22:58:00.101Z,95678.34
2022-11-04T23:00:27.535Z,95671.25
2022-11-04T23:02:55.113Z,95683.53
2022-11-04T23:05:27.037Z,95676.28
2022-11-04T23:07:54.550Z,95682.16
2022-11-04T23:10:39.770Z,95683.66
2022-11-04T23:13:25.065Z,95675.88
2022-11-04T23:16:10.314Z,95684.19
2022-11-04T23:18:44.048Z,95684.13
2022-11-04T23:21:31.674Z,95686.41
2022-11-04T23:24:16.847Z,95686.63
2022-11-04T23:26:46.083Z,95696.69
2022-11-04T23:29:31.626Z,95691.41
2022-11-04T23:31:59.046Z,95690.66
2022-11-04T23:34:44.133Z,95691.66
2022-11-04T23:37:13.387Z,95683.78
2022-11-04T23:39:42.320Z,95696.19
2022-11-04T23:42:19.607Z,95691.66
2022-11-04T23:45:06.875Z,95694.16
2022-11-04T23:47:53.573Z,95691.72
2022-11-04T23:50:39.918Z,95636.09
2022-11-04T23:53:26.266Z,95683.19
2022-11-04T23:56:12.033Z,95691.53
2022-11-04T23:58:57.088Z,95701.09
